Tremedal, Brazil
Current Conditions -  °F | °C
As of 8:00 PM on Thursday 18 Dec 2014 (Local Time) from SBQV Reporting Station
Broken Clouds Broken Clouds  
Wind Chill: 68°   Ceiling: 600
Heat Index: 68°   Visibility: 6mi
Dew Point: 68°   Wind: 9mph
Humidity: 100%   Direction: 50°NE
Pressure: 29.97"   Gusts: NA
Location:  14.98°S, 41.41°W
Report Text: SBQV 182300Z 05008KT 9999 BKN006 BKN070 20/20 Q1015
Loading
Personal Weather Stations






























Interactive Weather Map New forecast layout! Learn more

10-Day Weather Forecast

Advertisements
Track Severe Weather on mobile